sensor_id;sensor_type;location;lat;lon;timestamp;pressure;altitude;pressure_sealevel;temperature;humidity
50065;BME280;35951;47.848;-122.338;2022-10-13T00:01:14;102032.22;;;17.18;100.00
50065;BME280;35951;47.848;-122.338;2022-10-13T00:03:43;102033.95;;;17.19;100.00
50065;BME280;35951;47.848;-122.338;2022-10-13T00:06:16;102033.09;;;17.18;100.00
50065;BME280;35951;47.848;-122.338;2022-10-13T00:08:44;102035.28;;;17.20;100.00
50065;BME280;35951;47.848;-122.338;2022-10-13T00:11:15;102033.56;;;17.21;100.00
50065;BME280;35951;47.848;-122.338;2022-10-13T00:13:48;102033.97;;;17.20;100.00
50065;BME280;35951;47.848;-122.338;2022-10-13T00:16:18;102033.55;;;17.19;100.00
50065;BME280;35951;47.848;-122.338;2022-10-13T00:18:46;102035.70;;;17.17;100.00
50065;BME280;35951;47.848;-122.338;2022-10-13T00:21:17;102037.45;;;17.15;100.00
50065;BME280;35951;47.848;-122.338;2022-10-13T00:23:47;102030.85;;;17.12;100.00
50065;BME280;35951;47.848;-122.338;2022-10-13T00:26:16;102036.94;;;17.04;100.00
50065;BME280;35951;47.848;-122.338;2022-10-13T00:28:43;102036.95;;;17.03;100.00
50065;BME280;35951;47.848;-122.338;2022-10-13T00:31:25;102033.44;;;17.04;100.00
50065;BME280;35951;47.848;-122.338;2022-10-13T00:33:51;102029.95;;;17.03;100.00
50065;BME280;35951;47.848;-122.338;2022-10-13T00:36:20;102029.95;;;17.03;100.00
50065;BME280;35951;47.848;-122.338;2022-10-13T00:38:48;102029.50;;;17.04;100.00
50065;BME280;35951;47.848;-122.338;2022-10-13T00:41:16;102024.23;;;17.02;100.00
50065;BME280;35951;47.848;-122.338;2022-10-13T00:46:30;101997.91;;;16.87;100.00
50065;BME280;35951;47.848;-122.338;2022-10-13T00:49:10;102027.28;;;16.99;100.00
50065;BME280;35951;47.848;-122.338;2022-10-13T00:51:42;102026.83;;;16.95;100.00
50065;BME280;35951;47.848;-122.338;2022-10-13T00:54:14;102025.90;;;16.88;100.00
50065;BME280;35951;47.848;-122.338;2022-10-13T00:56:43;102021.97;;;16.85;100.00
50065;BME280;35951;47.848;-122.338;2022-10-13T00:59:14;102019.70;;;16.80;100.00
50065;BME280;35951;47.848;-122.338;2022-10-13T01:01:48;102017.89;;;16.71;100.00
50065;BME280;35951;47.848;-122.338;2022-10-13T01:04:21;102010.41;;;16.63;100.00
50065;BME280;35951;47.848;-122.338;2022-10-13T01:06:52;102016.89;;;16.52;100.00
50065;BME280;35951;47.848;-122.338;2022-10-13T01:09:21;102014.14;;;16.38;100.00
50065;BME280;35951;47.848;-122.338;2022-10-13T01:17:36;102011.59;;;15.98;100.00
50065;BME280;35951;47.848;-122.338;2022-10-13T01:34:51;102020.79;;;15.27;100.00
50065;BME280;35951;47.848;-122.338;2022-10-13T01:37:25;102012.82;;;15.18;100.00
50065;BME280;35951;47.848;-122.338;2022-10-13T01:42:50;102006.91;;;15.00;100.00
50065;BME280;35951;47.848;-122.338;2022-10-13T01:45:34;102007.23;;;14.93;100.00
50065;BME280;35951;47.848;-122.338;2022-10-13T01:48:19;102008.88;;;14.85;100.00
50065;BME280;35951;47.848;-122.338;2022-10-13T01:50:48;102008.28;;;14.75;100.00
50065;BME280;35951;47.848;-122.338;2022-10-13T01:53:17;102004.71;;;14.68;100.00
50065;BME280;35951;47.848;-122.338;2022-10-13T01:55:50;102007.21;;;14.62;100.00
50065;BME280;35951;47.848;-122.338;2022-10-13T01:58:23;102004.48;;;14.56;100.00
50065;BME280;35951;47.848;-122.338;2022-10-13T02:06:55;102005.88;;;14.34;100.00
50065;BME280;35951;47.848;-122.338;2022-10-13T02:09:46;102007.05;;;14.28;100.00
50065;BME280;35951;47.848;-122.338;2022-10-13T02:12:28;102013.03;;;14.20;100.00
50065;BME280;35951;47.848;-122.338;2022-10-13T02:15:00;102018.56;;;14.12;100.00
50065;BME280;35951;47.848;-122.338;2022-10-13T02:17:30;102010.63;;;14.06;100.00
50065;BME280;35951;47.848;-122.338;2022-10-13T02:19:58;102008.76;;;13.99;100.00
50065;BME280;35951;47.848;-122.338;2022-10-13T02:22:28;102009.96;;;13.94;100.00
50065;BME280;35951;47.848;-122.338;2022-10-13T02:24:58;102013.78;;;13.88;100.00
50065;BME280;35951;47.848;-122.338;2022-10-13T02:27:26;102016.73;;;13.83;100.00
50065;BME280;35951;47.848;-122.338;2022-10-13T02:29:54;102012.30;;;13.79;100.00
50065;BME280;35951;47.848;-122.338;2022-10-13T02:32:22;102018.30;;;13.75;100.00
50065;BME280;35951;47.848;-122.338;2022-10-13T02:34:50;102015.61;;;13.70;100.00
50065;BME280;35951;47.848;-122.338;2022-10-13T02:37:18;102018.16;;;13.67;100.00
50065;BME280;35951;47.848;-122.338;2022-10-13T02:39:45;102023.30;;;13.64;100.00
50065;BME280;35951;47.848;-122.338;2022-10-13T02:42:13;102025.84;;;13.59;100.00
50065;BME280;35951;47.848;-122.338;2022-10-13T02:44:40;102022.72;;;13.55;100.00
50065;BME280;35951;47.848;-122.338;2022-10-13T02:47:08;102022.22;;;13.53;100.00
50065;BME280;35951;47.848;-122.338;2022-10-13T02:49:35;102029.58;;;13.50;100.00
50065;BME280;35951;47.848;-122.338;2022-10-13T02:52:03;102032.58;;;13.48;100.00
50065;BME280;35951;47.848;-122.338;2022-10-13T02:54:31;102032.52;;;13.45;100.00
50065;BME280;35951;47.848;-122.338;2022-10-13T02:56:58;102026.37;;;13.43;100.00
50065;BME280;35951;47.848;-122.338;2022-10-13T02:59:26;102028.05;;;13.39;100.00
50065;BME280;35951;47.848;-122.338;2022-10-13T03:01:53;102029.78;;;13.39;100.00
50065;BME280;35951;47.848;-122.338;2022-10-13T03:04:24;102035.37;;;13.37;100.00
50065;BME280;35951;47.848;-122.338;2022-10-13T03:06:51;102034.45;;;13.35;100.00
50065;BME280;35951;47.848;-122.338;2022-10-13T03:09:19;102033.98;;;13.32;100.00
50065;BME280;35951;47.848;-122.338;2022-10-13T03:11:46;102038.26;;;13.30;100.00
50065;BME280;35951;47.848;-122.338;2022-10-13T03:14:14;102040.80;;;13.27;100.00
50065;BME280;35951;47.848;-122.338;2022-10-13T03:16:41;102039.88;;;13.25;100.00
50065;BME280;35951;47.848;-122.338;2022-10-13T03:19:09;102044.63;;;13.22;100.00
50065;BME280;35951;47.848;-122.338;2022-10-13T03:21:39;102047.59;;;13.19;100.00
50065;BME280;35951;47.848;-122.338;2022-10-13T03:24:07;102049.26;;;13.17;100.00
50065;BME280;35951;47.848;-122.338;2022-10-13T03:26:35;102039.21;;;13.15;100.00
50065;BME280;35951;47.848;-122.338;2022-10-13T03:29:02;102041.34;;;13.12;100.00
50065;BME280;35951;47.848;-122.338;2022-10-13T03:31:30;102047.39;;;13.11;100.00
50065;BME280;35951;47.848;-122.338;2022-10-13T03:33:58;102040.44;;;13.10;100.00
50065;BME280;35951;47.848;-122.338;2022-10-13T03:36:25;102038.22;;;13.10;100.00
50065;BME280;35951;47.848;-122.338;2022-10-13T03:38:53;102034.70;;;13.08;100.00
50065;BME280;35951;47.848;-122.338;2022-10-13T03:41:21;102040.31;;;13.05;100.00
50065;BME280;35951;47.848;-122.338;2022-10-13T03:43:48;102037.23;;;13.03;100.00
50065;BME280;35951;47.848;-122.338;2022-10-13T03:46:20;102037.19;;;13.01;100.00
50065;BME280;35951;47.848;-122.338;2022-10-13T03:48:50;102036.67;;;12.97;100.00
50065;BME280;35951;47.848;-122.338;2022-10-13T03:51:19;102033.11;;;12.94;100.00
50065;BME280;35951;47.848;-122.338;2022-10-13T03:53:48;102036.11;;;12.92;100.00
50065;BME280;35951;47.848;-122.338;2022-10-13T03:56:20;102036.50;;;12.91;100.00
50065;BME280;35951;47.848;-122.338;2022-10-13T03:58:48;102031.64;;;12.87;100.00
50065;BME280;35951;47.848;-122.338;2022-10-13T04:01:19;102036.45;;;12.88;100.00
50065;BME280;35951;47.848;-122.338;2022-10-13T04:03:48;102033.81;;;12.86;100.00
50065;BME280;35951;47.848;-122.338;2022-10-13T04:06:17;102035.03;;;12.83;100.00
50065;BME280;35951;47.848;-122.338;2022-10-13T04:08:44;102032.77;;;12.80;100.00
50065;BME280;35951;47.848;-122.338;2022-10-13T04:11:13;102033.16;;;12.78;100.00
50065;BME280;35951;47.848;-122.338;2022-10-13T04:13:43;102032.20;;;12.74;100.00
50065;BME280;35951;47.848;-122.338;2022-10-13T04:18:43;102029.91;;;12.69;100.00
50065;BME280;35951;47.848;-122.338;2022-10-13T04:21:13;102029.83;;;12.66;100.00
50065;BME280;35951;47.848;-122.338;2022-10-13T04:23:41;102033.30;;;12.65;100.00
50065;BME280;35951;47.848;-122.338;2022-10-13T04:26:14;102036.30;;;12.63;100.00
50065;BME280;35951;47.848;-122.338;2022-10-13T04:28:44;102033.59;;;12.60;100.00
50065;BME280;35951;47.848;-122.338;2022-10-13T04:31:12;102031.38;;;12.58;100.00
50065;BME280;35951;47.848;-122.338;2022-10-13T04:33:40;102027.86;;;12.56;100.00
50065;BME280;35951;47.848;-122.338;2022-10-13T04:36:10;102031.73;;;12.54;100.00
50065;BME280;35951;47.848;-122.338;2022-10-13T04:38:38;102032.16;;;12.54;100.00
50065;BME280;35951;47.848;-122.338;2022-10-13T04:41:06;102032.55;;;12.52;100.00
50065;BME280;35951;47.848;-122.338;2022-10-13T04:43:34;102029.42;;;12.49;100.00
50065;BME280;35951;47.848;-122.338;2022-10-13T04:46:17;102025.42;;;12.46;100.00
50065;BME280;35951;47.848;-122.338;2022-10-13T04:48:37;102023.68;;;12.45;100.00
50065;BME280;35951;47.848;-122.338;2022-10-13T04:51:12;102021.03;;;12.43;100.00
50065;BME280;35951;47.848;-122.338;2022-10-13T04:53:37;102027.98;;;12.43;100.00
50065;BME280;35951;47.848;-122.338;2022-10-13T04:56:08;102025.77;;;12.42;100.00
50065;BME280;35951;47.848;-122.338;2022-10-13T04:58:37;102013.03;;;12.36;100.00
50065;BME280;35951;47.848;-122.338;2022-10-13T05:01:07;102024.03;;;12.41;100.00
50065;BME280;35951;47.848;-122.338;2022-10-13T05:03:36;102022.25;;;12.40;100.00
50065;BME280;35951;47.848;-122.338;2022-10-13T05:06:04;102022.68;;;12.40;100.00
50065;BME280;35951;47.848;-122.338;2022-10-13T05:08:32;102027.02;;;12.39;100.00
50065;BME280;35951;47.848;-122.338;2022-10-13T05:11:00;102024.38;;;12.38;100.00
50065;BME280;35951;47.848;-122.338;2022-10-13T05:13:29;102025.20;;;12.37;100.00
50065;BME280;35951;47.848;-122.338;2022-10-13T05:15:56;102026.02;;;12.34;100.00
50065;BME280;35951;47.848;-122.338;2022-10-13T05:18:24;102029.10;;;12.35;100.00
50065;BME280;35951;47.848;-122.338;2022-10-13T05:20:52;102032.10;;;12.35;100.00
50065;BME280;35951;47.848;-122.338;2022-10-13T05:23:19;102035.97;;;12.33;100.00
50065;BME280;35951;47.848;-122.338;2022-10-13T05:25:47;102037.66;;;12.31;100.00
50065;BME280;35951;47.848;-122.338;2022-10-13T05:28:14;102045.03;;;12.30;100.00
50065;BME280;35951;47.848;-122.338;2022-10-13T05:30:42;102042.38;;;12.28;100.00
50065;BME280;35951;47.848;-122.338;2022-10-13T05:33:09;102039.25;;;12.26;100.00
50065;BME280;35951;47.848;-122.338;2022-10-13T05:35:37;102040.56;;;12.26;100.00
50065;BME280;35951;47.848;-122.338;2022-10-13T05:38:05;102039.69;;;12.25;100.00
50065;BME280;35951;47.848;-122.338;2022-10-13T05:40:32;102046.20;;;12.25;100.00
50065;BME280;35951;47.848;-122.338;2022-10-13T05:43:00;102042.77;;;12.26;100.00
50065;BME280;35951;47.848;-122.338;2022-10-13T05:45:28;102038.38;;;12.25;100.00
50065;BME280;35951;47.848;-122.338;2022-10-13T05:47:58;102036.64;;;12.24;100.00
50065;BME280;35951;47.848;-122.338;2022-10-13T05:50:27;102035.30;;;12.23;100.00
50065;BME280;35951;47.848;-122.338;2022-10-13T05:52:56;102035.69;;;12.22;100.00
50065;BME280;35951;47.848;-122.338;2022-10-13T05:55:23;102031.34;;;12.21;100.00
50065;BME280;35951;47.848;-122.338;2022-10-13T05:57:51;102040.89;;;12.21;100.00
50065;BME280;35951;47.848;-122.338;2022-10-13T06:00:19;102043.89;;;12.20;100.00
50065;BME280;35951;47.848;-122.338;2022-10-13T06:02:48;102046.50;;;12.20;100.00
50065;BME280;35951;47.848;-122.338;2022-10-13T06:05:23;102049.09;;;12.19;100.00
50065;BME280;35951;47.848;-122.338;2022-10-13T06:07:52;102048.14;;;12.17;100.00
50065;BME280;35951;47.848;-122.338;2022-10-13T06:10:23;102052.43;;;12.15;100.00
50065;BME280;35951;47.848;-122.338;2022-10-13T06:12:53;102051.08;;;12.13;100.00
50065;BME280;35951;47.848;-122.338;2022-10-13T06:15:20;102054.07;;;12.11;100.00
50065;BME280;35951;47.848;-122.338;2022-10-13T06:17:48;102056.23;;;12.10;100.00
50065;BME280;35951;47.848;-122.338;2022-10-13T06:20:16;102051.80;;;12.07;100.00
50065;BME280;35951;47.848;-122.338;2022-10-13T06:22:43;102054.84;;;12.07;100.00
50065;BME280;35951;47.848;-122.338;2022-10-13T06:25:11;102049.63;;;12.07;100.00
50065;BME280;35951;47.848;-122.338;2022-10-13T06:27:39;102046.16;;;12.06;100.00
50065;BME280;35951;47.848;-122.338;2022-10-13T06:30:07;102040.89;;;12.05;100.00
50065;BME280;35951;47.848;-122.338;2022-10-13T06:32:35;102035.69;;;12.05;100.00
50065;BME280;35951;47.848;-122.338;2022-10-13T06:35:03;102036.47;;;12.02;100.00
50065;BME280;35951;47.848;-122.338;2022-10-13T06:37:31;102036.90;;;12.02;100.00
50065;BME280;35951;47.848;-122.338;2022-10-13T06:39:58;102035.11;;;11.99;100.00
50065;BME280;35951;47.848;-122.338;2022-10-13T06:42:26;102038.11;;;11.99;100.00
50065;BME280;35951;47.848;-122.338;2022-10-13T06:44:55;102040.70;;;11.97;100.00
50065;BME280;35951;47.848;-122.338;2022-10-13T06:47:22;102040.22;;;11.96;100.00
50065;BME280;35951;47.848;-122.338;2022-10-13T06:49:50;102040.56;;;11.93;100.00
50065;BME280;35951;47.848;-122.338;2022-10-13T06:52:17;102040.94;;;11.90;100.00
50065;BME280;35951;47.848;-122.338;2022-10-13T06:54:45;102044.77;;;11.89;100.00
50065;BME280;35951;47.848;-122.338;2022-10-13T06:57:12;102047.80;;;11.88;100.00
50065;BME280;35951;47.848;-122.338;2022-10-13T06:59:40;102048.62;;;11.87;100.00
50065;BME280;35951;47.848;-122.338;2022-10-13T07:02:10;102045.97;;;11.86;100.00
50065;BME280;35951;47.848;-122.338;2022-10-13T07:04:37;102050.36;;;11.87;100.00
50065;BME280;35951;47.848;-122.338;2022-10-13T07:07:05;102045.97;;;11.86;100.00
50065;BME280;35951;47.848;-122.338;2022-10-13T07:09:32;102046.83;;;11.85;100.00
50065;BME280;35951;47.848;-122.338;2022-10-13T07:12:00;102048.52;;;11.83;100.00
50065;BME280;35951;47.848;-122.338;2022-10-13T07:14:28;102045.44;;;11.82;100.00
50065;BME280;35951;47.848;-122.338;2022-10-13T07:16:55;102046.69;;;11.80;100.00
50065;BME280;35951;47.848;-122.338;2022-10-13T07:19:23;102039.73;;;11.79;100.00
50065;BME280;35951;47.848;-122.338;2022-10-13T07:21:50;102048.38;;;11.78;100.00
50065;BME280;35951;47.848;-122.338;2022-10-13T07:24:18;102045.72;;;11.77;100.00
50065;BME280;35951;47.848;-122.338;2022-10-13T07:26:45;102042.67;;;11.76;100.00
50065;BME280;35951;47.848;-122.338;2022-10-13T07:29:13;102043.05;;;11.74;100.00
50065;BME280;35951;47.848;-122.338;2022-10-13T07:31:43;102046.48;;;11.72;100.00
50065;BME280;35951;47.848;-122.338;2022-10-13T07:34:11;102044.30;;;11.72;100.00
50065;BME280;35951;47.848;-122.338;2022-10-13T07:36:40;102040.78;;;11.70;100.00
50065;BME280;35951;47.848;-122.338;2022-10-13T07:39:08;102042.48;;;11.69;100.00
50065;BME280;35951;47.848;-122.338;2022-10-13T07:41:36;102046.81;;;11.69;100.00
50065;BME280;35951;47.848;-122.338;2022-10-13T07:44:03;102048.50;;;11.67;100.00
50065;BME280;35951;47.848;-122.338;2022-10-13T07:46:31;102047.63;;;11.66;100.00
50065;BME280;35951;47.848;-122.338;2022-10-13T07:48:59;102044.55;;;11.65;100.00
50065;BME280;35951;47.848;-122.338;2022-10-13T07:51:26;102047.53;;;11.63;100.00
50065;BME280;35951;47.848;-122.338;2022-10-13T07:53:54;102045.73;;;11.61;100.00
50065;BME280;35951;47.848;-122.338;2022-10-13T07:56:21;102044.43;;;11.61;100.00
50065;BME280;35951;47.848;-122.338;2022-10-13T07:58:49;102039.17;;;11.59;100.00
50065;BME280;35951;47.848;-122.338;2022-10-13T08:01:17;102040.43;;;11.58;100.00
50065;BME280;35951;47.848;-122.338;2022-10-13T08:03:44;102046.06;;;11.57;100.00
50065;BME280;35951;47.848;-122.338;2022-10-13T08:06:12;102042.11;;;11.56;100.00
50065;BME280;35951;47.848;-122.338;2022-10-13T08:08:40;102037.78;;;11.56;100.00
50065;BME280;35951;47.848;-122.338;2022-10-13T08:11:11;102042.11;;;11.56;100.00
50065;BME280;35951;47.848;-122.338;2022-10-13T08:13:38;102043.36;;;11.54;100.00
50065;BME280;35951;47.848;-122.338;2022-10-13T08:16:06;102039.88;;;11.53;100.00
50065;BME280;35951;47.848;-122.338;2022-10-13T08:18:34;102038.05;;;11.51;100.00
50065;BME280;35951;47.848;-122.338;2022-10-13T08:21:02;102033.70;;;11.50;100.00
50065;BME280;35951;47.848;-122.338;2022-10-13T08:23:30;102037.08;;;11.47;100.00
50065;BME280;35951;47.848;-122.338;2022-10-13T08:25:58;102034.95;;;11.48;100.00
50065;BME280;35951;47.848;-122.338;2022-10-13T08:28:27;102027.92;;;11.46;100.00
50065;BME280;35951;47.848;-122.338;2022-10-13T08:30:55;102033.13;;;11.46;100.00
50065;BME280;35951;47.848;-122.338;2022-10-13T08:33:23;102038.34;;;11.46;100.00
50065;BME280;35951;47.848;-122.338;2022-10-13T08:35:52;102037.36;;;11.42;100.00
50065;BME280;35951;47.848;-122.338;2022-10-13T08:38:20;102041.70;;;11.42;100.00
50065;BME280;35951;47.848;-122.338;2022-10-13T08:40:49;102043.87;;;11.42;100.00
50065;BME280;35951;47.848;-122.338;2022-10-13T08:43:18;102045.55;;;11.40;100.00
50065;BME280;35951;47.848;-122.338;2022-10-13T08:45:54;102050.37;;;11.42;100.00
50065;BME280;35951;47.848;-122.338;2022-10-13T08:48:32;102049.93;;;11.41;100.00
50065;BME280;35951;47.848;-122.338;2022-10-13T08:51:04;102038.72;;;11.44;100.00
50065;BME280;35951;47.848;-122.338;2022-10-13T08:53:42;102041.74;;;11.43;100.00
50065;BME280;35951;47.848;-122.338;2022-10-13T08:56:09;102043.09;;;11.45;100.00
50065;BME280;35951;47.848;-122.338;2022-10-13T08:58:43;102044.84;;;11.46;100.00
50065;BME280;35951;47.848;-122.338;2022-10-13T09:01:14;102035.34;;;11.46;100.00
50065;BME280;35951;47.848;-122.338;2022-10-13T09:07:05;102038.34;;;11.46;100.00
50065;BME280;35951;47.848;-122.338;2022-10-13T09:09:37;102046.13;;;11.44;100.00
50065;BME280;35951;47.848;-122.338;2022-10-13T09:12:05;102045.59;;;11.42;100.00
50065;BME280;35951;47.848;-122.338;2022-10-13T09:14:35;102050.75;;;11.40;100.00
50065;BME280;35951;47.848;-122.338;2022-10-13T09:17:16;102052.38;;;11.37;100.00
50065;BME280;35951;47.848;-122.338;2022-10-13T09:19:45;102040.60;;;11.33;100.00
50065;BME280;35951;47.848;-122.338;2022-10-13T09:22:34;102045.75;;;11.32;100.00
50065;BME280;35951;47.848;-122.338;2022-10-13T09:25:19;102039.63;;;11.30;100.00
50065;BME280;35951;47.848;-122.338;2022-10-13T09:27:53;102032.15;;;11.26;100.00
50065;BME280;35951;47.848;-122.338;2022-10-13T09:30:36;102010.48;;;11.13;100.00
50065;BME280;35951;47.848;-122.338;2022-10-13T09:35:44;102039.30;;;11.19;100.00
50065;BME280;35951;47.848;-122.338;2022-10-13T09:38:18;102034.05;;;11.18;100.00
50065;BME280;35951;47.848;-122.338;2022-10-13T09:41:15;102037.09;;;11.19;100.00
50065;BME280;35951;47.848;-122.338;2022-10-13T09:46:25;101995.91;;;11.04;100.00
50065;BME280;35951;47.848;-122.338;2022-10-13T09:48:56;102011.77;;;11.11;100.00
50065;BME280;35951;47.848;-122.338;2022-10-13T09:51:34;102012.11;;;11.09;100.00
50065;BME280;35951;47.848;-122.338;2022-10-13T09:54:04;102014.64;;;11.06;100.00
50065;BME280;35951;47.848;-122.338;2022-10-13T09:56:40;102020.61;;;11.04;100.00
50065;BME280;35951;47.848;-122.338;2022-10-13T10:01:48;102026.99;;;10.99;100.00
50065;BME280;35951;47.848;-122.338;2022-10-13T10:04:51;102031.98;;;10.93;100.00
50065;BME280;35951;47.848;-122.338;2022-10-13T10:06:57;102031.98;;;10.93;100.00
50065;BME280;35951;47.848;-122.338;2022-10-13T10:09:46;102028.06;;;10.91;100.00
50065;BME280;35951;47.848;-122.338;2022-10-13T10:12:18;102031.48;;;10.90;100.00
50065;BME280;35951;47.848;-122.338;2022-10-13T10:14:47;102015.55;;;10.80;100.00
50065;BME280;35951;47.848;-122.338;2022-10-13T10:17:41;102018.03;;;10.76;100.00
50065;BME280;35951;47.848;-122.338;2022-10-13T10:23:17;102033.00;;;10.84;100.00
50065;BME280;35951;47.848;-122.338;2022-10-13T10:26:18;102035.52;;;10.81;100.00
50065;BME280;35951;47.848;-122.338;2022-10-13T10:34:52;102060.05;;;10.76;100.00
50065;BME280;35951;47.848;-122.338;2022-10-13T10:40:58;102053.87;;;10.72;100.00
50065;BME280;35951;47.848;-122.338;2022-10-13T10:44:07;102047.19;;;10.66;100.00
50065;BME280;35951;47.848;-122.338;2022-10-13T10:46:24;102047.19;;;10.66;100.00
50065;BME280;35951;47.848;-122.338;2022-10-13T10:48:59;102041.08;;;10.66;100.00
50065;BME280;35951;47.848;-122.338;2022-10-13T10:51:34;102038.86;;;10.64;100.00
50065;BME280;35951;47.848;-122.338;2022-10-13T11:00:17;102016.20;;;10.60;100.00
50065;BME280;35951;47.848;-122.338;2022-10-13T11:05:57;102028.77;;;10.60;100.00
50065;BME280;35951;47.848;-122.338;2022-10-13T11:08:44;102027.03;;;10.59;100.00
50065;BME280;35951;47.848;-122.338;2022-10-13T11:13:58;102027.42;;;10.59;100.00
50065;BME280;35951;47.848;-122.338;2022-10-13T11:16:37;102015.03;;;10.50;100.00
50065;BME280;35951;47.848;-122.338;2022-10-13T11:27:23;102028.77;;;10.60;100.00
50065;BME280;35951;47.848;-122.338;2022-10-13T11:30:40;102025.73;;;10.59;100.00
50065;BME280;35951;47.848;-122.338;2022-10-13T11:36:44;102020.48;;;10.58;100.00
50065;BME280;35951;47.848;-122.338;2022-10-13T11:42:08;102013.98;;;10.58;100.00
50065;BME280;35951;47.848;-122.338;2022-10-13T11:44:54;102022.22;;;10.59;100.00
50065;BME280;35951;47.848;-122.338;2022-10-13T11:50:46;102003.60;;;10.45;100.00
50065;BME280;35951;47.848;-122.338;2022-10-13T11:53:23;102003.60;;;10.45;100.00
50065;BME280;35951;47.848;-122.338;2022-10-13T11:55:57;102028.59;;;10.54;100.00
50065;BME280;35951;47.848;-122.338;2022-10-13T11:58:28;102032.06;;;10.54;100.00
50065;BME280;35951;47.848;-122.338;2022-10-13T12:01:01;102029.52;;;10.56;100.00
50065;BME280;35951;47.848;-122.338;2022-10-13T12:03:36;102029.52;;;10.56;100.00
50065;BME280;35951;47.848;-122.338;2022-10-13T12:09:13;102024.82;;;10.59;100.00
50065;BME280;35951;47.848;-122.338;2022-10-13T12:11:45;102031.75;;;10.58;100.00
50065;BME280;35951;47.848;-122.338;2022-10-13T12:14:28;102032.62;;;10.59;100.00
50065;BME280;35951;47.848;-122.338;2022-10-13T12:16:58;101996.49;;;10.39;100.00
50065;BME280;35951;47.848;-122.338;2022-10-13T12:19:28;101999.28;;;10.45;100.00
50065;BME280;35951;47.848;-122.338;2022-10-13T12:21:59;102018.19;;;10.54;100.00
50065;BME280;35951;47.848;-122.338;2022-10-13T12:24:28;102009.55;;;10.55;100.00
50065;BME280;35951;47.848;-122.338;2022-10-13T12:26:55;102011.33;;;10.56;100.00
50065;BME280;35951;47.848;-122.338;2022-10-13T12:29:27;102007.91;;;10.57;100.00
50065;BME280;35951;47.848;-122.338;2022-10-13T12:31:56;101987.64;;;10.47;100.00
50065;BME280;35951;47.848;-122.338;2022-10-13T12:34:26;102003.53;;;10.56;100.00
50065;BME280;35951;47.848;-122.338;2022-10-13T12:37:02;102003.53;;;10.56;100.00
50065;BME280;35951;47.848;-122.338;2022-10-13T12:39:38;102014.73;;;10.55;100.00
50065;BME280;35951;47.848;-122.338;2022-10-13T12:42:06;102018.19;;;10.54;100.00
50065;BME280;35951;47.848;-122.338;2022-10-13T12:44:37;101999.59;;;10.42;100.00
50065;BME280;35951;47.848;-122.338;2022-10-13T12:47:05;101999.59;;;10.42;100.00
50065;BME280;35951;47.848;-122.338;2022-10-13T12:49:36;102012.89;;;10.51;100.00
50065;BME280;35951;47.848;-122.338;2022-10-13T12:54:47;102015.91;;;10.50;100.00
50065;BME280;35951;47.848;-122.338;2022-10-13T12:57:31;102015.91;;;10.50;100.00
50065;BME280;35951;47.848;-122.338;2022-10-13T13:00:44;102015.91;;;10.50;100.00
50065;BME280;35951;47.848;-122.338;2022-10-13T13:02:52;102010.34;;;10.52;100.00
50065;BME280;35951;47.848;-122.338;2022-10-13T13:05:37;102006.00;;;10.51;100.00
50065;BME280;35951;47.848;-122.338;2022-10-13T13:08:24;102001.25;;;10.52;100.00
50065;BME280;35951;47.848;-122.338;2022-10-13T13:10:58;102003.95;;;10.55;100.00
50065;BME280;35951;47.848;-122.338;2022-10-13T13:13:28;101997.83;;;10.53;100.00
50065;BME280;35951;47.848;-122.338;2022-10-13T13:16:13;102001.30;;;10.54;100.00
50065;BME280;35951;47.848;-122.338;2022-10-13T13:18:44;102002.60;;;10.54;100.00
50065;BME280;35951;47.848;-122.338;2022-10-13T13:21:14;102004.83;;;10.56;100.00
50065;BME280;35951;47.848;-122.338;2022-10-13T13:23:44;102007.91;;;10.57;100.00
50065;BME280;35951;47.848;-122.338;2022-10-13T13:26:18;102016.63;;;10.59;100.00
50065;BME280;35951;47.848;-122.338;2022-10-13T13:28:49;102007.74;;;10.52;100.00
50065;BME280;35951;47.848;-122.338;2022-10-13T13:31:20;102010.82;;;10.53;100.00
50065;BME280;35951;47.848;-122.338;2022-10-13T13:33:48;102018.38;;;10.60;100.00
50065;BME280;35951;47.848;-122.338;2022-10-13T13:36:18;102020.16;;;10.61;100.00
50065;BME280;35951;47.848;-122.338;2022-10-13T13:38:48;102018.91;;;10.63;100.00
50065;BME280;35951;47.848;-122.338;2022-10-13T13:41:16;102011.56;;;10.64;100.00
50065;BME280;35951;47.848;-122.338;2022-10-13T13:43:43;102014.22;;;10.65;100.00
50065;BME280;35951;47.848;-122.338;2022-10-13T13:46:17;102014.22;;;10.65;100.00
50065;BME280;35951;47.848;-122.338;2022-10-13T13:48:48;102007.77;;;10.67;100.00
50065;BME280;35951;47.848;-122.338;2022-10-13T13:51:16;102008.64;;;10.67;100.00
50065;BME280;35951;47.848;-122.338;2022-10-13T13:53:44;102005.12;;;10.65;100.00
50065;BME280;35951;47.848;-122.338;2022-10-13T13:56:17;102007.72;;;10.65;100.00
50065;BME280;35951;47.848;-122.338;2022-10-13T13:58:45;102020.28;;;10.66;100.00
50065;BME280;35951;47.848;-122.338;2022-10-13T14:01:13;102016.37;;;10.64;100.00
50065;BME280;35951;47.848;-122.338;2022-10-13T14:03:41;102020.66;;;10.64;100.00